sensor_id;sensor_type;location;lat;lon;timestamp;pressure;altitude;pressure_sealevel;temperature;humidity
20628;BME280;10473;42.734;24.258;2023-05-01T00:01:43;91803.69;;;10.11;79.32
20628;BME280;10473;42.734;24.258;2023-05-01T00:04:11;91780.78;;;9.89;79.83
20628;BME280;10473;42.734;24.258;2023-05-01T00:06:39;91766.28;;;9.79;78.65
20628;BME280;10473;42.734;24.258;2023-05-01T00:09:07;91777.78;;;9.94;78.94
20628;BME280;10473;42.734;24.258;2023-05-01T00:11:36;91790.78;;;10.06;78.10
20628;BME280;10473;42.734;24.258;2023-05-01T00:14:04;91767.94;;;9.91;78.09
20628;BME280;10473;42.734;24.258;2023-05-01T00:16:31;91809.00;;;9.78;79.09
20628;BME280;10473;42.734;24.258;2023-05-01T00:19:00;91804.28;;;9.97;78.54
20628;BME280;10473;42.734;24.258;2023-05-01T00:21:29;91794.31;;;9.84;78.52
20628;BME280;10473;42.734;24.258;2023-05-01T00:23:57;91777.63;;;9.76;78.46
20628;BME280;10473;42.734;24.258;2023-05-01T00:26:24;91791.75;;;9.91;77.74
20628;BME280;10473;42.734;24.258;2023-05-01T00:28:57;91794.31;;;9.84;77.51
20628;BME280;10473;42.734;24.258;2023-05-01T00:31:25;91801.25;;;9.95;76.99
20628;BME280;10473;42.734;24.258;2023-05-01T00:33:52;91816.38;;;9.95;76.78
20628;BME280;10473;42.734;24.258;2023-05-01T00:36:20;91813.19;;;9.79;77.93
20628;BME280;10473;42.734;24.258;2023-05-01T00:38:48;91809.47;;;9.87;77.65
20628;BME280;10473;42.734;24.258;2023-05-01T00:41:16;91813.69;;;9.58;78.52
20628;BME280;10473;42.734;24.258;2023-05-01T00:43:44;91763.94;;;9.38;78.58
20628;BME280;10473;42.734;24.258;2023-05-01T00:46:13;91817.66;;;9.75;78.09
20628;BME280;10473;42.734;24.258;2023-05-01T00:48:41;91818.41;;;9.42;79.36
20628;BME280;10473;42.734;24.258;2023-05-01T00:51:08;91823.81;;;9.53;79.61
20628;BME280;10473;42.734;24.258;2023-05-01T00:53:38;91813.22;;;9.53;79.55
20628;BME280;10473;42.734;24.258;2023-05-01T00:56:07;91826.56;;;9.60;79.35
20628;BME280;10473;42.734;24.258;2023-05-01T00:58:35;91829.03;;;9.46;79.46
20628;BME280;10473;42.734;24.258;2023-05-01T01:01:03;91837.78;;;9.50;80.02
20628;BME280;10473;42.734;24.258;2023-05-01T01:03:32;91841.66;;;9.59;79.54
20628;BME280;10473;42.734;24.258;2023-05-01T01:06:06;91845.25;;;9.44;80.30
20628;BME280;10473;42.734;24.258;2023-05-01T01:08:39;91848.34;;;9.50;80.48
20628;BME280;10473;42.734;24.258;2023-05-01T01:11:14;91769.94;;;9.02;79.70
20628;BME280;10473;42.734;24.258;2023-05-01T01:13:55;91835.53;;;9.52;79.41
20628;BME280;10473;42.734;24.258;2023-05-01T01:16:30;91841.44;;;9.42;79.38
20628;BME280;10473;42.734;24.258;2023-05-01T01:19:11;91846.03;;;9.45;79.84
20628;BME280;10473;42.734;24.258;2023-05-01T01:21:50;91845.22;;;9.41;80.17
20628;BME280;10473;42.734;24.258;2023-05-01T01:24:35;91859.06;;;9.31;80.08
20628;BME280;10473;42.734;24.258;2023-05-01T01:27:30;91850.31;;;9.27;80.03
20628;BME280;10473;42.734;24.258;2023-05-01T01:30:25;91849.38;;;9.42;79.98
20628;BME280;10473;42.734;24.258;2023-05-01T01:33:16;91848.88;;;9.33;80.30
20628;BME280;10473;42.734;24.258;2023-05-01T01:35:54;91852.00;;;9.42;79.88
20628;BME280;10473;42.734;24.258;2023-05-01T01:38:28;91845.06;;;9.30;79.77
20628;BME280;10473;42.734;24.258;2023-05-01T01:41:06;91857.53;;;9.30;80.22
20628;BME280;10473;42.734;24.258;2023-05-01T01:43:38;91816.28;;;8.96;80.34
20628;BME280;10473;42.734;24.258;2023-05-01T01:46:09;91855.75;;;9.37;79.96
20628;BME280;10473;42.734;24.258;2023-05-01T01:48:40;91834.91;;;9.32;79.13
20628;BME280;10473;42.734;24.258;2023-05-01T01:51:12;91839.84;;;9.34;79.98
20628;BME280;10473;42.734;24.258;2023-05-01T01:53:45;91837.19;;;9.34;79.80
20628;BME280;10473;42.734;24.258;2023-05-01T01:56:13;91846.19;;;9.29;80.34
20628;BME280;10473;42.734;24.258;2023-05-01T01:58:48;91846.72;;;9.42;80.09
20628;BME280;10473;42.734;24.258;2023-05-01T02:01:18;91848.31;;;9.46;79.69
20628;BME280;10473;42.734;24.258;2023-05-01T02:03:47;91838.50;;;9.50;79.57
20628;BME280;10473;42.734;24.258;2023-05-01T02:06:17;91848.91;;;9.66;78.73
20628;BME280;10473;42.734;24.258;2023-05-01T02:08:46;91848.06;;;9.58;78.26
20628;BME280;10473;42.734;24.258;2023-05-01T02:11:19;91844.88;;;9.46;78.68
20628;BME280;10473;42.734;24.258;2023-05-01T02:13:49;91852.91;;;9.53;78.79
20628;BME280;10473;42.734;24.258;2023-05-01T02:16:19;91852.13;;;9.49;78.86
20628;BME280;10473;42.734;24.258;2023-05-01T02:18:50;91855.13;;;9.47;78.88
20628;BME280;10473;42.734;24.258;2023-05-01T02:21:20;91853.69;;;9.53;78.63
20628;BME280;10473;42.734;24.258;2023-05-01T02:23:49;91855.19;;;9.54;78.10
20628;BME280;10473;42.734;24.258;2023-05-01T02:26:20;91855.22;;;9.58;78.17
20628;BME280;10473;42.734;24.258;2023-05-01T02:28:52;91853.31;;;9.55;77.99
20628;BME280;10473;42.734;24.258;2023-05-01T02:31:20;91852.59;;;9.58;77.93
20628;BME280;10473;42.734;24.258;2023-05-01T02:33:48;91836.28;;;9.52;77.57
20628;BME280;10473;42.734;24.258;2023-05-01T02:36:16;91850.03;;;9.65;77.80
20628;BME280;10473;42.734;24.258;2023-05-01T02:38:45;91844.38;;;9.63;77.94
20628;BME280;10473;42.734;24.258;2023-05-01T02:41:17;91850.09;;;9.68;78.07
20628;BME280;10473;42.734;24.258;2023-05-01T02:43:48;91847.47;;;9.72;77.69
20628;BME280;10473;42.734;24.258;2023-05-01T02:46:21;91840.81;;;9.52;78.68
20628;BME280;10473;42.734;24.258;2023-05-01T02:48:51;91843.13;;;9.57;79.12
20628;BME280;10473;42.734;24.258;2023-05-01T02:51:22;91856.03;;;9.62;78.77
20628;BME280;10473;42.734;24.258;2023-05-01T02:53:52;91850.50;;;9.41;79.57
20628;BME280;10473;42.734;24.258;2023-05-01T02:56:24;91856.00;;;9.58;79.86
20628;BME280;10473;42.734;24.258;2023-05-01T02:58:53;91858.38;;;9.67;78.73
20628;BME280;10473;42.734;24.258;2023-05-01T03:01:21;91864.09;;;9.69;79.17
20628;BME280;10473;42.734;24.258;2023-05-01T03:03:49;91862.19;;;9.69;79.05
20628;BME280;10473;42.734;24.258;2023-05-01T03:06:16;91866.47;;;9.81;78.79
20628;BME280;10473;42.734;24.258;2023-05-01T03:08:45;91869.13;;;9.81;78.48
20628;BME280;10473;42.734;24.258;2023-05-01T03:11:15;91871.25;;;9.68;79.00
20628;BME280;10473;42.734;24.258;2023-05-01T03:13:42;91870.19;;;9.73;79.20
20628;BME280;10473;42.734;24.258;2023-05-01T03:16:11;91879.34;;;9.82;78.56
20628;BME280;10473;42.734;24.258;2023-05-01T03:18:39;91883.53;;;9.83;78.52
20628;BME280;10473;42.734;24.258;2023-05-01T03:21:06;91868.25;;;9.70;78.94
20628;BME280;10473;42.734;24.258;2023-05-01T03:23:34;91876.03;;;9.89;78.30
20628;BME280;10473;42.734;24.258;2023-05-01T03:26:03;91881.66;;;9.84;78.32
20628;BME280;10473;42.734;24.258;2023-05-01T03:28:34;91879.00;;;9.84;78.21
20628;BME280;10473;42.734;24.258;2023-05-01T03:31:02;91873.69;;;9.80;78.97
20628;BME280;10473;42.734;24.258;2023-05-01T03:33:31;91884.72;;;9.89;78.61
20628;BME280;10473;42.734;24.258;2023-05-01T03:36:00;91853.88;;;9.71;78.82
20628;BME280;10473;42.734;24.258;2023-05-01T03:38:29;91885.97;;;9.99;78.92
20628;BME280;10473;42.734;24.258;2023-05-01T03:41:09;91884.25;;;10.13;78.41
20628;BME280;10473;42.734;24.258;2023-05-01T03:43:56;91878.97;;;10.13;78.10
20628;BME280;10473;42.734;24.258;2023-05-01T03:46:34;91890.81;;;10.23;77.68
20628;BME280;10473;42.734;24.258;2023-05-01T03:49:02;91851.44;;;9.88;78.09
20628;BME280;10473;42.734;24.258;2023-05-01T03:51:34;91888.81;;;10.13;78.58
20628;BME280;10473;42.734;24.258;2023-05-01T03:54:02;91887.38;;;10.19;78.31
20628;BME280;10473;42.734;24.258;2023-05-01T03:56:39;91888.81;;;10.13;78.95
20628;BME280;10473;42.734;24.258;2023-05-01T03:59:08;91872.19;;;10.16;78.87
20628;BME280;10473;42.734;24.258;2023-05-01T04:01:39;91892.00;;;10.29;78.21
20628;BME280;10473;42.734;24.258;2023-05-01T04:04:07;91894.78;;;10.39;78.39
20628;BME280;10473;42.734;24.258;2023-05-01T04:06:36;91893.31;;;10.45;77.82
20628;BME280;10473;42.734;24.258;2023-05-01T04:09:05;91888.72;;;10.42;77.87
20628;BME280;10473;42.734;24.258;2023-05-01T04:11:33;91892.00;;;10.29;78.77
20628;BME280;10473;42.734;24.258;2023-05-01T04:14:01;91898.59;;;10.42;78.62
20628;BME280;10473;42.734;24.258;2023-05-01T04:16:30;91901.25;;;10.45;78.43
20628;BME280;10473;42.734;24.258;2023-05-01T04:18:58;91874.19;;;10.26;78.77
20628;BME280;10473;42.734;24.258;2023-05-01T04:21:26;91897.97;;;10.59;78.34
20628;BME280;10473;42.734;24.258;2023-05-01T04:23:53;91899.97;;;10.69;77.69
20628;BME280;10473;42.734;24.258;2023-05-01T04:26:21;91888.53;;;10.61;77.06
20628;BME280;10473;42.734;24.258;2023-05-01T04:28:49;91884.34;;;10.57;78.13
20628;BME280;10473;42.734;24.258;2023-05-01T04:31:21;91908.03;;;10.83;77.79
20628;BME280;10473;42.734;24.258;2023-05-01T04:33:50;91900.13;;;10.90;77.32
20628;BME280;10473;42.734;24.258;2023-05-01T04:36:18;91905.09;;;10.91;78.06
20628;BME280;10473;42.734;24.258;2023-05-01T04:38:47;91907.84;;;11.05;77.13
20628;BME280;10473;42.734;24.258;2023-05-01T04:41:16;91912.03;;;11.10;77.36
20628;BME280;10473;42.734;24.258;2023-05-01T04:43:46;91903.31;;;11.06;77.55
20628;BME280;10473;42.734;24.258;2023-05-01T04:46:17;91909.81;;;11.12;77.89
20628;BME280;10473;42.734;24.258;2023-05-01T04:48:45;91910.69;;;11.30;77.52
20628;BME280;10473;42.734;24.258;2023-05-01T04:51:14;91917.53;;;11.31;76.87
20628;BME280;10473;42.734;24.258;2023-05-01T04:53:42;91898.53;;;11.29;76.38
20628;BME280;10473;42.734;24.258;2023-05-01T04:56:19;91926.00;;;11.54;75.62
20628;BME280;10473;42.734;24.258;2023-05-01T04:58:49;91929.63;;;11.28;76.95
20628;BME280;10473;42.734;24.258;2023-05-01T05:01:20;91932.69;;;11.34;77.37
20628;BME280;10473;42.734;24.258;2023-05-01T05:03:48;91925.63;;;11.55;77.24
20628;BME280;10473;42.734;24.258;2023-05-01T05:06:17;91934.50;;;11.70;76.08
20628;BME280;10473;42.734;24.258;2023-05-01T05:08:45;91931.50;;;11.78;75.44
20628;BME280;10473;42.734;24.258;2023-05-01T05:11:13;91930.03;;;11.88;75.46
20628;BME280;10473;42.734;24.258;2023-05-01T05:13:48;91935.34;;;11.91;74.61
20628;BME280;10473;42.734;24.258;2023-05-01T05:16:16;91935.69;;;11.83;73.42
20628;BME280;10473;42.734;24.258;2023-05-01T05:18:44;91930.34;;;11.76;73.53
20628;BME280;10473;42.734;24.258;2023-05-01T05:21:12;91947.53;;;12.03;74.01
20628;BME280;10473;42.734;24.258;2023-05-01T05:23:47;91941.16;;;12.18;74.08
20628;BME280;10473;42.734;24.258;2023-05-01T05:26:15;91943.47;;;12.23;74.02
20628;BME280;10473;42.734;24.258;2023-05-01T05:28:43;91950.00;;;12.43;73.81
20628;BME280;10473;42.734;24.258;2023-05-01T05:31:14;91963.19;;;12.22;73.70
20628;BME280;10473;42.734;24.258;2023-05-01T05:33:42;91968.19;;;12.34;74.02
20628;BME280;10473;42.734;24.258;2023-05-01T05:36:10;91967.13;;;12.63;73.33
20628;BME280;10473;42.734;24.258;2023-05-01T05:38:41;91961.13;;;12.80;73.02
20628;BME280;10473;42.734;24.258;2023-05-01T05:41:13;91974.75;;;12.64;74.25
20628;BME280;10473;42.734;24.258;2023-05-01T05:43:44;91981.66;;;12.90;72.53
20628;BME280;10473;42.734;24.258;2023-05-01T05:46:12;91979.06;;;13.04;72.89
20628;BME280;10473;42.734;24.258;2023-05-01T05:48:41;91987.44;;;13.13;73.13
20628;BME280;10473;42.734;24.258;2023-05-01T05:51:09;91986.69;;;13.26;72.36
20628;BME280;10473;42.734;24.258;2023-05-01T05:53:37;91995.03;;;13.32;72.84
20628;BME280;10473;42.734;24.258;2023-05-01T05:56:05;91997.34;;;13.23;73.03
20628;BME280;10473;42.734;24.258;2023-05-01T05:58:34;92000.78;;;13.30;73.51
20628;BME280;10473;42.734;24.258;2023-05-01T06:01:03;92005.31;;;13.23;73.26
20628;BME280;10473;42.734;24.258;2023-05-01T06:03:34;92007.97;;;13.37;72.83
20628;BME280;10473;42.734;24.258;2023-05-01T06:06:02;91997.34;;;13.44;72.49
20628;BME280;10473;42.734;24.258;2023-05-01T06:08:30;92010.66;;;13.58;72.36
20628;BME280;10473;42.734;24.258;2023-05-01T06:10:58;92010.28;;;13.63;73.09
20628;BME280;10473;42.734;24.258;2023-05-01T06:13:26;92007.63;;;13.49;72.82
20628;BME280;10473;42.734;24.258;2023-05-01T06:15:55;92009.16;;;13.78;72.75
20628;BME280;10473;42.734;24.258;2023-05-01T06:18:23;92013.31;;;13.93;71.79
20628;BME280;10473;42.734;24.258;2023-05-01T06:20:51;92000.34;;;14.19;70.72
20628;BME280;10473;42.734;24.258;2023-05-01T06:23:19;91993.34;;;14.71;72.17
20628;BME280;10473;42.734;24.258;2023-05-01T06:26:02;92006.81;;;15.22;69.35
20628;BME280;10473;42.734;24.258;2023-05-01T06:28:30;92006.59;;;15.57;64.50
20628;BME280;10473;42.734;24.258;2023-05-01T06:30:59;92002.22;;;15.84;62.82
20628;BME280;10473;42.734;24.258;2023-05-01T06:33:27;92008.84;;;16.09;60.67
20628;BME280;10473;42.734;24.258;2023-05-01T06:36:07;92013.59;;;16.32;61.06
20628;BME280;10473;42.734;24.258;2023-05-01T06:38:35;92008.72;;;16.64;60.22
20628;BME280;10473;42.734;24.258;2023-05-01T06:41:03;92008.41;;;16.92;57.33
20628;BME280;10473;42.734;24.258;2023-05-01T06:43:31;92021.84;;;17.15;56.00
20628;BME280;10473;42.734;24.258;2023-05-01T06:46:00;92022.31;;;17.40;54.39
20628;BME280;10473;42.734;24.258;2023-05-01T06:48:28;92021.38;;;17.53;55.36
20628;BME280;10473;42.734;24.258;2023-05-01T06:50:56;92024.72;;;17.84;56.39
20628;BME280;10473;42.734;24.258;2023-05-01T06:53:23;92022.88;;;18.04;54.53
20628;BME280;10473;42.734;24.258;2023-05-01T06:55:51;92036.91;;;18.38;53.27
20628;BME280;10473;42.734;24.258;2023-05-01T06:58:20;92034.00;;;18.52;52.50
20628;BME280;10473;42.734;24.258;2023-05-01T07:00:47;92025.81;;;18.59;54.93
20628;BME280;10473;42.734;24.258;2023-05-01T07:03:17;92007.78;;;18.59;52.82
20628;BME280;10473;42.734;24.258;2023-05-01T07:05:44;92037.31;;;18.59;51.48
20628;BME280;10473;42.734;24.258;2023-05-01T07:08:12;92038.69;;;18.67;51.51
20628;BME280;10473;42.734;24.258;2023-05-01T07:10:40;92039.66;;;18.57;51.42
20628;BME280;10473;42.734;24.258;2023-05-01T07:13:07;92034.22;;;18.38;51.88
20628;BME280;10473;42.734;24.258;2023-05-01T07:15:35;92032.16;;;18.68;51.87
20628;BME280;10473;42.734;24.258;2023-05-01T07:18:03;92036.25;;;18.96;51.09
20628;BME280;10473;42.734;24.258;2023-05-01T07:20:33;92038.78;;;19.03;50.11
20628;BME280;10473;42.734;24.258;2023-05-01T07:23:01;92036.03;;;19.26;49.57
20628;BME280;10473;42.734;24.258;2023-05-01T07:25:28;92039.09;;;19.28;49.41
20628;BME280;10473;42.734;24.258;2023-05-01T07:27:56;92042.34;;;19.55;49.96
20628;BME280;10473;42.734;24.258;2023-05-01T07:30:26;92037.78;;;19.52;48.20
20628;BME280;10473;42.734;24.258;2023-05-01T07:32:55;92040.00;;;19.57;48.60
20628;BME280;10473;42.734;24.258;2023-05-01T07:35:24;92044.25;;;19.74;49.29
20628;BME280;10473;42.734;24.258;2023-05-01T07:37:54;92050.31;;;19.78;49.55
20628;BME280;10473;42.734;24.258;2023-05-01T07:40:21;92051.66;;;19.86;50.01
20628;BME280;10473;42.734;24.258;2023-05-01T07:42:49;92048.91;;;19.89;48.86
20628;BME280;10473;42.734;24.258;2023-05-01T07:45:16;92047.25;;;19.76;49.38
20628;BME280;10473;42.734;24.258;2023-05-01T07:47:44;92045.69;;;19.43;46.54
20628;BME280;10473;42.734;24.258;2023-05-01T07:50:12;92049.84;;;19.28;47.56
20628;BME280;10473;42.734;24.258;2023-05-01T07:52:40;92046.63;;;19.13;48.14
20628;BME280;10473;42.734;24.258;2023-05-01T07:55:09;92049.25;;;18.97;48.76
20628;BME280;10473;42.734;24.258;2023-05-01T07:57:37;92051.94;;;18.97;47.74
20628;BME280;10473;42.734;24.258;2023-05-01T08:00:06;92056.53;;;18.97;48.05
20628;BME280;10473;42.734;24.258;2023-05-01T08:02:39;92052.97;;;18.84;47.22
20628;BME280;10473;42.734;24.258;2023-05-01T08:05:07;92058.91;;;18.95;46.49
20628;BME280;10473;42.734;24.258;2023-05-01T08:07:35;92053.31;;;19.05;46.63
20628;BME280;10473;42.734;24.258;2023-05-01T08:10:03;92048.69;;;19.06;47.20
20628;BME280;10473;42.734;24.258;2023-05-01T08:12:32;92050.16;;;19.30;46.43
20628;BME280;10473;42.734;24.258;2023-05-01T08:15:00;92048.03;;;19.41;46.17
20628;BME280;10473;42.734;24.258;2023-05-01T08:17:28;92061.03;;;19.42;46.52
20628;BME280;10473;42.734;24.258;2023-05-01T08:19:56;92055.47;;;19.53;47.00
20628;BME280;10473;42.734;24.258;2023-05-01T08:22:24;92060.34;;;19.58;46.86
20628;BME280;10473;42.734;24.258;2023-05-01T08:24:51;92066.22;;;19.53;45.30
20628;BME280;10473;42.734;24.258;2023-05-01T08:27:19;92070.78;;;19.72;45.56
20628;BME280;10473;42.734;24.258;2023-05-01T08:29:49;92074.00;;;19.83;44.17
20628;BME280;10473;42.734;24.258;2023-05-01T08:32:17;92068.47;;;19.54;43.15
20628;BME280;10473;42.734;24.258;2023-05-01T08:34:45;92068.53;;;19.51;45.08
20628;BME280;10473;42.734;24.258;2023-05-01T08:37:13;92068.97;;;19.30;45.75
20628;BME280;10473;42.734;24.258;2023-05-01T08:39:40;92069.59;;;19.37;45.88
20628;BME280;10473;42.734;24.258;2023-05-01T08:42:09;92067.84;;;19.47;47.06
20628;BME280;10473;42.734;24.258;2023-05-01T08:44:37;92046.22;;;19.54;47.14
20628;BME280;10473;42.734;24.258;2023-05-01T08:47:10;92068.88;;;20.08;47.30
20628;BME280;10473;42.734;24.258;2023-05-01T08:49:39;92066.94;;;20.24;45.06
20628;BME280;10473;42.734;24.258;2023-05-01T08:52:09;92064.81;;;20.48;42.94
20628;BME280;10473;42.734;24.258;2023-05-01T08:54:41;92070.25;;;20.76;45.28
20628;BME280;10473;42.734;24.258;2023-05-01T08:57:10;92052.34;;;20.70;43.86
20628;BME280;10473;42.734;24.258;2023-05-01T08:59:39;92068.66;;;20.79;43.97
20628;BME280;10473;42.734;24.258;2023-05-01T09:02:08;92057.69;;;20.25;40.97
20628;BME280;10473;42.734;24.258;2023-05-01T09:04:38;92042.66;;;19.92;40.82
20628;BME280;10473;42.734;24.258;2023-05-01T09:07:06;92070.78;;;19.72;42.41
20628;BME280;10473;42.734;24.258;2023-05-01T09:09:34;92067.31;;;19.36;43.40
20628;BME280;10473;42.734;24.258;2023-05-01T09:12:08;92073.38;;;19.20;47.75
20628;BME280;10473;42.734;24.258;2023-05-01T09:14:39;92077.81;;;18.88;49.73
20628;BME280;10473;42.734;24.258;2023-05-01T09:17:08;92092.41;;;18.18;50.30
20628;BME280;10473;42.734;24.258;2023-05-01T09:19:37;92086.09;;;17.52;52.68
20628;BME280;10473;42.734;24.258;2023-05-01T09:22:06;92071.56;;;17.16;54.49
20628;BME280;10473;42.734;24.258;2023-05-01T09:24:33;92061.06;;;16.98;53.88
20628;BME280;10473;42.734;24.258;2023-05-01T09:27:04;92087.69;;;17.12;55.70
20628;BME280;10473;42.734;24.258;2023-05-01T09:29:37;92073.53;;;16.78;56.08
20628;BME280;10473;42.734;24.258;2023-05-01T09:32:17;92112.06;;;16.88;55.63
20628;BME280;10473;42.734;24.258;2023-05-01T09:34:46;92091.41;;;16.51;56.13
20628;BME280;10473;42.734;24.258;2023-05-01T09:37:24;92114.22;;;16.63;54.80
20628;BME280;10473;42.734;24.258;2023-05-01T09:40:04;92100.41;;;16.68;52.58
20628;BME280;10473;42.734;24.258;2023-05-01T09:42:33;92104.84;;;16.81;53.53
20628;BME280;10473;42.734;24.258;2023-05-01T09:45:04;92122.28;;;16.96;52.98
20628;BME280;10473;42.734;24.258;2023-05-01T09:47:33;92131.47;;;16.95;52.60
20628;BME280;10473;42.734;24.258;2023-05-01T09:50:01;92106.13;;;16.70;52.22
20628;BME280;10473;42.734;24.258;2023-05-01T09:52:29;92143.78;;;16.89;53.92
20628;BME280;10473;42.734;24.258;2023-05-01T09:55:12;92144.00;;;16.65;56.78
20628;BME280;10473;42.734;24.258;2023-05-01T09:57:40;92150.31;;;16.41;58.16
20628;BME280;10473;42.734;24.258;2023-05-01T10:00:10;92146.41;;;16.52;55.58
20628;BME280;10473;42.734;24.258;2023-05-01T10:02:41;92130.84;;;16.37;60.73
20628;BME280;10473;42.734;24.258;2023-05-01T10:05:10;92162.31;;;15.54;58.13
20628;BME280;10473;42.734;24.258;2023-05-01T10:10:18;92148.66;;;15.27;59.65
20628;BME280;10473;42.734;24.258;2023-05-01T10:12:46;92146.75;;;15.21;63.84
20628;BME280;10473;42.734;24.258;2023-05-01T10:15:15;92143.34;;;15.17;66.01
20628;BME280;10473;42.734;24.258;2023-05-01T10:17:48;92164.41;;;14.80;66.32
20628;BME280;10473;42.734;24.258;2023-05-01T10:20:16;92177.03;;;14.44;66.64
20628;BME280;10473;42.734;24.258;2023-05-01T10:22:44;92162.84;;;13.98;67.84
20628;BME280;10473;42.734;24.258;2023-05-01T10:25:12;92181.47;;;13.81;71.19
20628;BME280;10473;42.734;24.258;2023-05-01T10:27:40;92170.69;;;13.32;72.48
20628;BME280;10473;42.734;24.258;2023-05-01T10:30:09;92188.13;;;13.19;74.03
20628;BME280;10473;42.734;24.258;2023-05-01T10:32:40;92194.91;;;13.06;76.10
20628;BME280;10473;42.734;24.258;2023-05-01T10:35:11;92197.50;;;12.95;75.51
20628;BME280;10473;42.734;24.258;2023-05-01T10:37:46;92198.69;;;13.01;75.22
20628;BME280;10473;42.734;24.258;2023-05-01T10:40:45;92184.31;;;13.13;75.00
20628;BME280;10473;42.734;24.258;2023-05-01T10:43:15;92179.00;;;13.13;74.29
20628;BME280;10473;42.734;24.258;2023-05-01T10:45:43;92172.16;;;13.15;74.41
20628;BME280;10473;42.734;24.258;2023-05-01T10:48:11;92180.56;;;13.28;73.68
20628;BME280;10473;42.734;24.258;2023-05-01T10:51:08;92184.41;;;13.41;72.57
20628;BME280;10473;42.734;24.258;2023-05-01T10:53:40;92159.25;;;13.21;71.35
20628;BME280;10473;42.734;24.258;2023-05-01T10:56:39;92183.72;;;13.58;72.27
20628;BME280;10473;42.734;24.258;2023-05-01T10:59:08;92177.63;;;13.57;70.88
20628;BME280;10473;42.734;24.258;2023-05-01T11:01:37;92187.53;;;13.67;73.22
20628;BME280;10473;42.734;24.258;2023-05-01T11:04:06;92186.78;;;13.67;74.63
20628;BME280;10473;42.734;24.258;2023-05-01T11:06:36;92191.41;;;13.94;75.23
20628;BME280;10473;42.734;24.258;2023-05-01T11:09:34;92180.75;;;13.98;74.88
20628;BME280;10473;42.734;24.258;2023-05-01T11:12:03;92188.03;;;14.18;74.73
20628;BME280;10473;42.734;24.258;2023-05-01T11:15:02;92170.13;;;14.19;73.21
20628;BME280;10473;42.734;24.258;2023-05-01T11:17:46;92193.78;;;14.38;73.11
20628;BME280;10473;42.734;24.258;2023-05-01T11:20:46;92205.94;;;14.39;72.71
20628;BME280;10473;42.734;24.258;2023-05-01T11:23:21;92218.16;;;14.26;70.26
20628;BME280;10473;42.734;24.258;2023-05-01T11:26:01;92221.09;;;14.00;72.18
20628;BME280;10473;42.734;24.258;2023-05-01T11:28:30;92219.53;;;13.85;71.61
20628;BME280;10473;42.734;24.258;2023-05-01T11:30:58;92221.81;;;13.79;72.25
20628;BME280;10473;42.734;24.258;2023-05-01T11:33:26;92186.03;;;13.70;72.66
20628;BME280;10473;42.734;24.258;2023-05-01T11:36:01;92224.13;;;13.88;71.56
20628;BME280;10473;42.734;24.258;2023-05-01T11:38:31;92218.03;;;13.84;73.34
20628;BME280;10473;42.734;24.258;2023-05-01T11:41:01;92216.91;;;13.95;74.73
20628;BME280;10473;42.734;24.258;2023-05-01T11:43:30;92208.22;;;14.16;73.44
20628;BME280;10473;42.734;24.258;2023-05-01T11:45:58;92208.25;;;14.44;72.19
20628;BME280;10473;42.734;24.258;2023-05-01T11:48:29;92205.94;;;14.60;71.52
20628;BME280;10473;42.734;24.258;2023-05-01T11:50:57;92198.31;;;14.83;71.40
20628;BME280;10473;42.734;24.258;2023-05-01T11:53:26;92185.31;;;14.99;71.51
20628;BME280;10473;42.734;24.258;2023-05-01T11:55:55;92173.88;;;15.12;68.79
20628;BME280;10473;42.734;24.258;2023-05-01T11:58:33;92192.91;;;15.39;67.31
20628;BME280;10473;42.734;24.258;2023-05-01T12:01:01;92186.72;;;15.56;66.94
20628;BME280;10473;42.734;24.258;2023-05-01T12:03:39;92166.03;;;15.67;66.54
20628;BME280;10473;42.734;24.258;2023-05-01T12:06:08;92168.25;;;15.86;65.81
20628;BME280;10473;42.734;24.258;2023-05-01T12:08:41;92179.97;;;16.06;65.79
20628;BME280;10473;42.734;24.258;2023-05-01T12:11:12;92174.97;;;16.11;66.19
20628;BME280;10473;42.734;24.258;2023-05-01T12:13:39;92170.38;;;16.15;65.15
20628;BME280;10473;42.734;24.258;2023-05-01T12:16:08;92186.28;;;16.33;65.47
20628;BME280;10473;42.734;24.258;2023-05-01T12:18:36;92188.63;;;16.24;64.83
20628;BME280;10473;42.734;24.258;2023-05-01T12:21:04;92177.94;;;16.24;63.87
20628;BME280;10473;42.734;24.258;2023-05-01T12:23:35;92184.00;;;16.31;65.03
20628;BME280;10473;42.734;24.258;2023-05-01T12:26:16;92149.97;;;16.32;64.95
20628;BME280;10473;42.734;24.258;2023-05-01T12:28:54;92183.41;;;16.61;64.12
20628;BME280;10473;42.734;24.258;2023-05-01T12:31:23;92183.28;;;16.75;64.49
20628;BME280;10473;42.734;24.258;2023-05-01T12:33:55;92188.94;;;16.84;63.33
20628;BME280;10473;42.734;24.258;2023-05-01T12:36:25;92126.56;;;16.50;62.84
20628;BME280;10473;42.734;24.258;2023-05-01T12:38:58;92182.38;;;16.92;63.41
20628;BME280;10473;42.734;24.258;2023-05-01T12:41:38;92171.59;;;16.99;62.63
20628;BME280;10473;42.734;24.258;2023-05-01T12:44:16;92101.97;;;16.62;62.96
20628;BME280;10473;42.734;24.258;2023-05-01T12:46:52;92171.81;;;17.15;59.45
20628;BME280;10473;42.734;24.258;2023-05-01T12:49:21;92158.34;;;16.85;59.98
20628;BME280;10473;42.734;24.258;2023-05-01T12:51:51;92161.25;;;17.01;60.39
20628;BME280;10473;42.734;24.258;2023-05-01T12:54:20;92163.25;;;16.90;61.76
20628;BME280;10473;42.734;24.258;2023-05-01T12:56:50;92162.09;;;16.94;61.24
20628;BME280;10473;42.734;24.258;2023-05-01T12:59:23;92140.50;;;17.12;61.76
20628;BME280;10473;42.734;24.258;2023-05-01T13:01:58;92160.22;;;17.28;60.44
20628;BME280;10473;42.734;24.258;2023-05-01T13:04:27;92156.25;;;17.40;60.17
20628;BME280;10473;42.734;24.258;2023-05-01T13:06:55;92149.38;;;17.39;56.91
20628;BME280;10473;42.734;24.258;2023-05-01T13:09:27;92163.16;;;17.41;54.50
20628;BME280;10473;42.734;24.258;2023-05-01T13:11:58;92150.25;;;17.29;53.22
20628;BME280;10473;42.734;24.258;2023-05-01T13:14:28;92152.66;;;17.53;53.67